首页
METAR-TAF:

METAR-TAF

机场 :

威奇托, 堪薩斯州, 美国

纬度: 37-37N, 经度: 097-16W, 海拔: 418米

当前天气观测

该预报发布于14分钟前的03:56 UTC
风速4节,风向东转东北
温度 4°C
湿度 44%
气压 1020 hPa
能見度: 16.1公里
天空无云

METAR: KIAB 140356Z AUTO 06004KT 10SM CLR 04/M07 A3012 RMK AO2 SLP212 T00351073 $

时间: 22:10 (04:10 UTC)

预报

该预报发布于2小时和10分钟前的02:00 UTC
预报有效从14日的 02点(UTC)到 15日的 08点(UTC)
风速6节,风向多变
能见度10公里或以上
散云层高于3500英尺
成为
从 14日的 10点(UTC)到 14日的 11点(UTC)
风速6节,风向多变
能见度10公里或以上
少量云层高于1300英尺
成为
从 14日的 14点(UTC)到 14日的 15点(UTC)
风速6节,风向多变
能見度: 8000
多云层高于700英尺
轻雾
成为
从 14日的 17点(UTC)到 14日的 18点(UTC)
风速6节,风向多变
能见度10公里或以上
天空无云

TAF: KIAB 140200Z 1402/1508 VRB06KT 9999 SCT035 QNH3008INS BECMG 1410/1411 VRB06KT 9999 FEW013 QNH3023INS BECMG 1414/1415 VRB06KT 8000 BR BKN007 QNH3032INS BECMG 1417/1418 VRB06KT 9999 NSW SKC 510013 QNH3032INS TX09/1421Z TN00/1412Z

超过4000个机场的气象观测和天气预报(METAR&TAF报告)。

可查询的气象台以黄色和红色小点在地图上表示。

将鼠标移到小点上方,可查看气象台名称。

然后点击查看天气观测和预报。

如需切换地图:点击带黑十字的绿色按钮放大地图;点击带横线的绿色按钮缩小地图;或者点击绿色箭头查看邻近地区的地图。


METAR-TAF: